Time;durP1;ratioP1;P1;durP2;ratioP2;P2;SDS_P1;SDS_P2;PMS_P1;PMS_P2;Temp;Humidity;BMP_temperature;BMP_pressure;BME280_temperature;BME280_humidity;BME280_pressure;Samples;Min_cycle;Max_cycle;Signal;HPM_P1;HPM_P2
2021/07/11 00:00:08;;;;;;;;;;;21.60;63.80;;;;;;5012002;28;20340;-66
2021/07/11 00:02:33;;;;;;;;;;;21.60;63.80;;;;;;5016465;28;19928;-67
2021/07/11 00:05:00;;;;;;;;;;;21.60;63.90;;;;;;5023475;28;19917;-66
2021/07/11 00:07:25;;;;;;;;;;;21.60;63.80;;;;;;5021041;28;19917;-64
2021/07/11 00:09:51;;;;;;;;;;;21.60;63.70;;;;;;5009014;28;20513;-66
2021/07/11 00:12:16;;;;;;;;;;;21.70;63.50;;;;;;5013696;28;20003;-63
2021/07/11 00:14:42;;;;;;;;;;;21.70;63.60;;;;;;5021490;28;19924;-63
2021/07/11 00:17:07;;;;;;;;;;;21.70;63.50;;;;;;5006451;28;19963;-64
2021/07/11 00:19:33;;;;;;;;;;;21.70;63.30;;;;;;5011798;28;19918;-62
2021/07/11 00:21:58;;;;;;;;;;;21.70;63.40;;;;;;5030008;28;19917;-67
2021/07/11 00:24:24;;;;;;;;;;;21.70;63.50;;;;;;5028394;28;19968;-68
2021/07/11 00:26:49;;;;;;;;;;;21.60;63.60;;;;;;5019973;28;20288;-66
2021/07/11 00:29:14;;;;;;;;;;;21.70;63.70;;;;;;5020243;28;19921;-67
2021/07/11 00:31:40;;;;;;;;;;;21.70;63.50;;;;;;5008551;28;20377;-64
2021/07/11 00:34:05;;;;;;;;;;;21.70;63.40;;;;;;5025970;28;19987;-66
2021/07/11 00:36:31;;;;;;;;;;;21.70;63.60;;;;;;5008721;28;19924;-66
2021/07/11 00:38:56;;;;;;;;;;;21.70;63.60;;;;;;5011581;28;19925;-65
2021/07/11 00:41:22;;;;;;;;;;;21.70;63.60;;;;;;5019671;28;19920;-66
2021/07/11 00:43:47;;;;;;;;;;;21.70;63.50;;;;;;5013989;28;19936;-65
2021/07/11 00:46:13;;;;;;;;;;;21.70;63.50;;;;;;5023277;28;19917;-69
2021/07/11 00:48:38;;;;;;;;;;;21.70;63.50;;;;;;5015137;28;20372;-66
2021/07/11 00:51:04;;;;;;;;;;;21.60;63.40;;;;;;5018064;28;19929;-66
2021/07/11 00:53:29;;;;;;;;;;;21.60;63.30;;;;;;5012107;28;19921;-64
2021/07/11 00:55:55;;;;;;;;;;;21.70;63.30;;;;;;5022581;28;19924;-69
2021/07/11 00:58:20;;;;;;;;;;;21.60;63.20;;;;;;5023199;28;19940;-69
2021/07/11 01:00:49;;;;;;;;;;;21.60;63.10;;;;;;5010951;28;19924;-66
2021/07/11 01:03:28;;;;;;;;;;;21.60;63.20;;;;;;5002566;28;20368;-64
2021/07/11 01:05:54;;;;;;;;;;;21.60;63.10;;;;;;4993982;28;20642;-62
2021/07/11 01:08:25;;;;;;;;;;;21.60;63.10;;;;;;4998180;28;20384;-62
2021/07/11 01:10:52;;;;;;;;;;;21.60;63.10;;;;;;5024056;28;19917;-65
2021/07/11 01:13:18;;;;;;;;;;;21.60;63.00;;;;;;5011290;28;19953;-69
2021/07/11 01:15:46;;;;;;;;;;;21.60;63.00;;;;;;5008667;28;19929;-68
2021/07/11 01:18:12;;;;;;;;;;;21.60;63.10;;;;;;5018547;28;19924;-62
2021/07/11 01:20:40;;;;;;;;;;;21.60;62.70;;;;;;5014027;28;19921;-66
2021/07/11 01:23:07;;;;;;;;;;;21.70;63.00;;;;;;5014634;28;19917;-68
2021/07/11 01:25:35;;;;;;;;;;;21.60;62.80;;;;;;5011839;28;19924;-66
2021/07/11 01:28:04;;;;;;;;;;;21.60;62.60;;;;;;5007270;28;19925;-65
2021/07/11 01:30:30;;;;;;;;;;;21.60;62.80;;;;;;5014132;28;19977;-64
2021/07/11 01:32:56;;;;;;;;;;;21.60;62.80;;;;;;5025246;28;20342;-66
2021/07/11 01:35:21;;;;;;;;;;;21.60;62.50;;;;;;4993348;28;19917;-64
2021/07/11 01:37:47;;;;;;;;;;;21.50;62.70;;;;;;5014874;28;20059;-66
2021/07/11 01:40:12;;;;;;;;;;;21.60;62.70;;;;;;5001008;28;19922;-67
2021/07/11 01:42:38;;;;;;;;;;;21.50;62.50;;;;;;4998264;28;19921;-69
2021/07/11 01:45:04;;;;;;;;;;;21.50;62.60;;;;;;4994888;28;19925;-66
2021/07/11 01:47:29;;;;;;;;;;;21.50;62.20;;;;;;5002621;28;19988;-65
2021/07/11 01:49:55;;;;;;;;;;;21.50;62.70;;;;;;5008590;28;20525;-64
2021/07/11 01:52:20;;;;;;;;;;;21.50;61.50;;;;;;5012591;28;19957;-68
2021/07/11 01:54:46;;;;;;;;;;;21.40;62.30;;;;;;4997862;28;19924;-67
2021/07/11 01:57:13;;;;;;;;;;;21.40;62.40;;;;;;4993829;28;19917;-68
2021/07/11 01:59:38;;;;;;;;;;;21.50;62.60;;;;;;5030162;28;19912;-65
2021/07/11 02:02:04;;;;;;;;;;;21.40;62.50;;;;;;5007580;28;19974;-68
2021/07/11 02:04:29;;;;;;;;;;;21.50;62.20;;;;;;5015010;28;19921;-66
2021/07/11 02:06:54;;;;;;;;;;;21.50;62.50;;;;;;5027150;28;20336;-67
2021/07/11 02:09:20;;;;;;;;;;;21.40;62.30;;;;;;5029986;28;19931;-69
2021/07/11 02:11:45;;;;;;;;;;;21.40;61.70;;;;;;5017763;28;19956;-68
2021/07/11 02:14:16;;;;;;;;;;;21.40;62.50;;;;;;5001476;28;19917;-69
2021/07/11 02:16:45;;;;;;;;;;;21.40;62.50;;;;;;5004945;28;19975;-66
2021/07/11 02:19:11;;;;;;;;;;;21.40;62.60;;;;;;4993811;28;19968;-62
2021/07/11 02:21:38;;;;;;;;;;;21.40;62.50;;;;;;4980365;28;19925;-61
2021/07/11 02:24:03;;;;;;;;;;;21.30;62.70;;;;;;5016303;28;19924;-67
2021/07/11 02:26:29;;;;;;;;;;;21.40;62.60;;;;;;5015164;28;19917;-66
2021/07/11 02:28:54;;;;;;;;;;;21.40;62.60;;;;;;5010208;28;19917;-65
2021/07/11 02:31:20;;;;;;;;;;;21.40;62.50;;;;;;4996680;28;19951;-67
2021/07/11 02:33:45;;;;;;;;;;;21.40;62.50;;;;;;5004751;28;20299;-63
2021/07/11 02:36:12;;;;;;;;;;;21.40;62.60;;;;;;5028272;28;19929;-65
2021/07/11 02:38:40;;;;;;;;;;;21.40;62.40;;;;;;5017318;28;20338;-63
2021/07/11 02:41:06;;;;;;;;;;;21.40;62.50;;;;;;5013212;28;19999;-65
2021/07/11 02:43:31;;;;;;;;;;;21.40;62.40;;;;;;5020416;28;20432;-66
2021/07/11 02:45:57;;;;;;;;;;;21.40;62.40;;;;;;5007768;28;19917;-65
2021/07/11 02:48:22;;;;;;;;;;;21.40;62.50;;;;;;5001506;28;19921;-62
2021/07/11 02:50:48;;;;;;;;;;;21.40;62.40;;;;;;5011719;28;20005;-62
2021/07/11 02:53:17;;;;;;;;;;;21.40;62.50;;;;;;5016615;28;19928;-65
2021/07/11 02:55:43;;;;;;;;;;;21.40;62.50;;;;;;5030259;28;19917;-62
2021/07/11 02:58:10;;;;;;;;;;;21.40;62.40;;;;;;5009974;28;19923;-64
2021/07/11 03:00:35;;;;;;;;;;;21.40;62.40;;;;;;5014560;28;19979;-64
2021/07/11 03:03:01;;;;;;;;;;;21.40;62.60;;;;;;5025599;28;19921;-69
2021/07/11 03:05:26;;;;;;;;;;;21.40;62.50;;;;;;5023897;28;19917;-66
2021/07/11 03:07:52;;;;;;;;;;;21.40;62.50;;;;;;4991029;28;19917;-66
2021/07/11 03:10:17;;;;;;;;;;;21.40;62.60;;;;;;4991910;28;20009;-61
2021/07/11 03:12:44;;;;;;;;;;;21.40;62.40;;;;;;5018555;28;20392;-65
2021/07/11 03:15:10;;;;;;;;;;;21.40;62.60;;;;;;5028696;28;19975;-66
2021/07/11 03:17:35;;;;;;;;;;;21.40;62.60;;;;;;4990590;28;19957;-63
2021/07/11 03:20:01;;;;;;;;;;;21.40;62.50;;;;;;5018935;28;19971;-66
2021/07/11 03:22:28;;;;;;;;;;;21.40;62.20;;;;;;5010984;28;19924;-63
2021/07/11 03:24:55;;;;;;;;;;;21.30;62.40;;;;;;5000606;28;19921;-67
2021/07/11 03:27:21;;;;;;;;;;;21.40;62.50;;;;;;5016460;28;20372;-67
2021/07/11 03:30:01;;;;;;;;;;;21.40;62.40;;;;;;5026021;28;21507;-67
2021/07/11 03:32:26;;;;;;;;;;;21.40;62.40;;;;;;5014164;28;19925;-67
2021/07/11 03:34:52;;;;;;;;;;;21.40;62.40;;;;;;5016320;28;19928;-66
2021/07/11 03:37:17;;;;;;;;;;;21.30;62.20;;;;;;5026796;28;19917;-67
2021/07/11 03:39:44;;;;;;;;;;;21.40;62.20;;;;;;5001508;28;20007;-66
2021/07/11 03:42:09;;;;;;;;;;;21.30;62.20;;;;;;4994794;28;19917;-67
2021/07/11 03:44:35;;;;;;;;;;;21.40;62.20;;;;;;4994197;28;19952;-66
2021/07/11 03:47:01;;;;;;;;;;;21.40;62.20;;;;;;5004196;28;19921;-66
2021/07/11 03:49:26;;;;;;;;;;;21.40;62.30;;;;;;5004970;28;19917;-66
2021/07/11 03:51:52;;;;;;;;;;;21.30;62.00;;;;;;5003928;28;19929;-68
2021/07/11 03:54:17;;;;;;;;;;;21.30;62.10;;;;;;4997805;28;19918;-67
2021/07/11 03:56:43;;;;;;;;;;;21.30;62.90;;;;;;4994992;28;20380;-66
2021/07/11 03:59:09;;;;;;;;;;;21.30;62.30;;;;;;5002620;28;19917;-67
2021/07/11 04:01:35;;;;;;;;;;;21.30;62.10;;;;;;5005973;28;20331;-66
2021/07/11 04:04:01;;;;;;;;;;;21.20;61.60;;;;;;5019416;28;20307;-66
2021/07/11 04:06:28;;;;;;;;;;;21.20;61.90;;;;;;5015549;28;19921;-67
2021/07/11 04:08:55;;;;;;;;;;;21.10;61.90;;;;;;5009155;28;20029;-66
2021/07/11 04:11:20;;;;;;;;;;;21.20;62.00;;;;;;5016872;28;19921;-66
2021/07/11 04:13:46;;;;;;;;;;;21.20;62.10;;;;;;5014719;28;19917;-66
2021/07/11 04:16:11;;;;;;;;;;;21.20;61.70;;;;;;5014522;28;19972;-66
2021/07/11 04:18:41;;;;;;;;;;;21.10;61.80;;;;;;5002868;28;19922;-66
2021/07/11 04:21:07;;;;;;;;;;;21.10;61.50;;;;;;5013526;28;19948;-67
2021/07/11 04:23:33;;;;;;;;;;;21.00;61.90;;;;;;5017452;28;20427;-68
2021/07/11 04:25:58;;;;;;;;;;;21.00;61.70;;;;;;5006180;28;19947;-67
2021/07/11 04:28:23;;;;;;;;;;;21.00;62.10;;;;;;5001747;28;19925;-69
2021/07/11 04:30:49;;;;;;;;;;;21.00;61.70;;;;;;5014799;28;19922;-69
2021/07/11 04:33:14;;;;;;;;;;;20.90;61.60;;;;;;5023538;28;19921;-66
2021/07/11 04:35:40;;;;;;;;;;;20.90;62.30;;;;;;5025134;28;20280;-67
2021/07/11 04:38:06;;;;;;;;;;;20.90;62.40;;;;;;5020014;28;19925;-68
2021/07/11 04:40:31;;;;;;;;;;;21.00;62.50;;;;;;5013315;28;19922;-68
2021/07/11 04:42:56;;;;;;;;;;;21.00;62.30;;;;;;5016177;28;19917;-66
2021/07/11 04:45:22;;;;;;;;;;;21.10;62.50;;;;;;5012287;28;19967;-66
2021/07/11 04:47:47;;;;;;;;;;;21.20;62.40;;;;;;5022737;28;19923;-67
2021/07/11 04:50:13;;;;;;;;;;;21.20;62.30;;;;;;5017674;28;19921;-66
2021/07/11 04:52:39;;;;;;;;;;;21.20;62.30;;;;;;4999971;28;19929;-66
2021/07/11 04:55:13;;;;;;;;;;;21.10;62.30;;;;;;5021113;28;19921;-66
2021/07/11 04:57:38;;;;;;;;;;;21.10;62.60;;;;;;5010809;28;19971;-68
2021/07/11 05:00:05;;;;;;;;;;;21.10;62.30;;;;;;5017761;28;19925;-68
2021/07/11 05:02:31;;;;;;;;;;;21.20;62.40;;;;;;5006694;28;19953;-67
2021/07/11 05:04:56;;;;;;;;;;;21.20;62.70;;;;;;5015132;28;19927;-68
2021/07/11 05:07:21;;;;;;;;;;;21.30;62.50;;;;;;5023299;28;19921;-68
2021/07/11 05:09:47;;;;;;;;;;;21.20;62.90;;;;;;5011552;28;20534;-68
2021/07/11 05:12:12;;;;;;;;;;;21.30;63.60;;;;;;5013916;28;19925;-68
2021/07/11 05:14:38;;;;;;;;;;;21.30;62.90;;;;;;5009168;28;19928;-67
2021/07/11 05:17:03;;;;;;;;;;;21.30;63.00;;;;;;5017870;28;20320;-67
2021/07/11 05:19:29;;;;;;;;;;;21.30;63.00;;;;;;5017663;28;19917;-66
2021/07/11 05:21:54;;;;;;;;;;;21.30;63.50;;;;;;5000270;28;19918;-68
2021/07/11 05:24:19;;;;;;;;;;;21.30;63.10;;;;;;5020799;28;19924;-64
2021/07/11 05:26:45;;;;;;;;;;;21.40;63.00;;;;;;5018117;28;20295;-65
2021/07/11 05:29:10;;;;;;;;;;;21.30;63.10;;;;;;5020613;28;19926;-68
2021/07/11 05:31:36;;;;;;;;;;;21.30;63.10;;;;;;5006010;28;19929;-67
2021/07/11 05:34:01;;;;;;;;;;;21.40;63.20;;;;;;4994548;28;19932;-67
2021/07/11 05:36:27;;;;;;;;;;;21.40;63.20;;;;;;5011423;28;19917;-67
2021/07/11 05:38:52;;;;;;;;;;;21.40;63.10;;;;;;5008907;28;19921;-62
2021/07/11 05:41:18;;;;;;;;;;;21.40;63.10;;;;;;5016967;28;19932;-63
2021/07/11 05:43:43;;;;;;;;;;;21.40;62.90;;;;;;5022327;28;19960;-62
2021/07/11 05:46:09;;;;;;;;;;;21.40;62.80;;;;;;5011048;28;19922;-66
2021/07/11 05:48:34;;;;;;;;;;;21.40;62.80;;;;;;5017444;28;19917;-66
2021/07/11 05:51:00;;;;;;;;;;;21.50;62.90;;;;;;5018504;28;19925;-61
2021/07/11 05:53:25;;;;;;;;;;;21.40;62.70;;;;;;5017195;28;19987;-62
2021/07/11 05:55:50;;;;;;;;;;;21.40;62.80;;;;;;5008541;28;19918;-66
2021/07/11 05:58:16;;;;;;;;;;;21.40;62.80;;;;;;5005133;28;19972;-62
2021/07/11 06:00:42;;;;;;;;;;;21.40;63.10;;;;;;5016679;28;20297;-62
2021/07/11 06:03:08;;;;;;;;;;;21.40;63.10;;;;;;5018875;28;19945;-64
2021/07/11 06:05:37;;;;;;;;;;;21.40;63.20;;;;;;5022362;28;19917;-69
2021/07/11 06:08:03;;;;;;;;;;;21.50;63.30;;;;;;4992642;28;19940;-67
2021/07/11 06:10:28;;;;;;;;;;;21.40;63.30;;;;;;5011823;28;19953;-65
2021/07/11 06:12:54;;;;;;;;;;;21.40;64.00;;;;;;5016734;28;19930;-68
2021/07/11 06:15:19;;;;;;;;;;;21.40;64.00;;;;;;5013277;28;19956;-68
2021/07/11 06:17:45;;;;;;;;;;;21.40;64.00;;;;;;5015068;28;20293;-70
2021/07/11 06:20:10;;;;;;;;;;;21.50;63.60;;;;;;5008776;28;19921;-66
2021/07/11 06:22:36;;;;;;;;;;;21.50;63.30;;;;;;5012839;28;19952;-69
2021/07/11 06:25:06;;;;;;;;;;;21.50;63.30;;;;;;4999529;28;19968;-68
2021/07/11 06:27:35;;;;;;;;;;;21.50;63.20;;;;;;5019551;28;20027;-65
2021/07/11 06:30:01;;;;;;;;;;;21.50;63.20;;;;;;5016291;28;20000;-64
2021/07/11 06:32:27;;;;;;;;;;;21.50;63.30;;;;;;5015079;28;20379;-67
2021/07/11 06:34:52;;;;;;;;;;;21.50;63.30;;;;;;5010766;28;19927;-64
2021/07/11 06:37:17;;;;;;;;;;;21.50;63.40;;;;;;5012521;28;20394;-61
2021/07/11 06:39:43;;;;;;;;;;;21.50;63.50;;;;;;5011544;28;19925;-66
2021/07/11 06:42:08;;;;;;;;;;;21.50;63.40;;;;;;4995223;28;19922;-64
2021/07/11 06:44:34;;;;;;;;;;;21.60;63.50;;;;;;5014768;28;19922;-64
2021/07/11 06:46:59;;;;;;;;;;;21.50;63.50;;;;;;5004521;28;20342;-68
2021/07/11 06:49:25;;;;;;;;;;;21.50;63.50;;;;;;4998003;28;19926;-61
2021/07/11 06:51:50;;;;;;;;;;;21.50;63.40;;;;;;5011747;28;19952;-60
2021/07/11 06:54:15;;;;;;;;;;;21.50;63.50;;;;;;5010101;28;19917;-64
2021/07/11 06:56:41;;;;;;;;;;;21.50;63.50;;;;;;5013970;28;19925;-61
2021/07/11 06:59:06;;;;;;;;;;;21.50;63.60;;;;;;5001588;28;19917;-66
2021/07/11 07:01:32;;;;;;;;;;;21.50;63.80;;;;;;5015262;28;20306;-65
2021/07/11 07:03:57;;;;;;;;;;;21.50;63.90;;;;;;5004193;28;19917;-65
2021/07/11 07:06:23;;;;;;;;;;;21.50;63.80;;;;;;5017922;28;19917;-65
2021/07/11 07:08:48;;;;;;;;;;;21.50;63.80;;;;;;5012629;28;19925;-68
2021/07/11 07:11:14;;;;;;;;;;;21.60;63.90;;;;;;4987245;28;20077;-63
2021/07/11 07:13:39;;;;;;;;;;;21.50;63.90;;;;;;4996311;28;19917;-65
2021/07/11 07:16:05;;;;;;;;;;;21.50;64.00;;;;;;5014241;28;20296;-64
2021/07/11 07:18:30;;;;;;;;;;;21.50;64.00;;;;;;5021225;28;19921;-66
2021/07/11 07:20:55;;;;;;;;;;;21.50;64.00;;;;;;5017166;28;19918;-65
2021/07/11 07:23:21;;;;;;;;;;;21.50;64.20;;;;;;5000571;28;19940;-65
2021/07/11 07:25:46;;;;;;;;;;;21.50;64.20;;;;;;5018653;28;19925;-66
2021/07/11 07:28:12;;;;;;;;;;;21.50;64.20;;;;;;5004500;28;19917;-67
2021/07/11 07:30:37;;;;;;;;;;;21.50;64.20;;;;;;5010477;28;20613;-68
2021/07/11 07:33:03;;;;;;;;;;;21.50;64.30;;;;;;5010828;28;19928;-68
2021/07/11 07:35:28;;;;;;;;;;;21.50;64.40;;;;;;5001601;28;19924;-69
2021/07/11 07:37:54;;;;;;;;;;;21.50;64.40;;;;;;5026742;28;19921;-70
2021/07/11 07:40:20;;;;;;;;;;;21.50;64.40;;;;;;5010667;28;19931;-68
2021/07/11 07:42:46;;;;;;;;;;;21.50;64.50;;;;;;5013733;28;19917;-69
2021/07/11 07:45:12;;;;;;;;;;;21.50;64.50;;;;;;5015093;28;20412;-68
2021/07/11 07:47:37;;;;;;;;;;;21.50;65.00;;;;;;5016967;28;19921;-68
2021/07/11 07:50:04;;;;;;;;;;;21.60;64.70;;;;;;5017593;28;19917;-70
2021/07/11 07:52:29;;;;;;;;;;;21.50;64.50;;;;;;5016137;28;20295;-67
2021/07/11 07:54:55;;;;;;;;;;;21.50;64.60;;;;;;5014368;28;19921;-69
2021/07/11 07:57:20;;;;;;;;;;;21.50;65.20;;;;;;5015610;28;20338;-67
2021/07/11 07:59:45;;;;;;;;;;;21.60;64.60;;;;;;5017405;28;19928;-65
2021/07/11 08:02:11;;;;;;;;;;;21.50;64.70;;;;;;5000405;28;19924;-67
2021/07/11 08:04:36;;;;;;;;;;;21.50;64.70;;;;;;5015024;28;19921;-66
2021/07/11 08:07:02;;;;;;;;;;;21.50;64.70;;;;;;5014058;28;19917;-67
2021/07/11 08:09:27;;;;;;;;;;;21.50;64.70;;;;;;5016984;28;19917;-65
2021/07/11 08:11:53;;;;;;;;;;;21.50;64.90;;;;;;5015353;28;19928;-71
2021/07/11 08:14:18;;;;;;;;;;;21.50;65.00;;;;;;5021321;28;19924;-67
2021/07/11 08:16:44;;;;;;;;;;;21.50;65.00;;;;;;5013404;28;20044;-67
2021/07/11 08:19:09;;;;;;;;;;;21.50;65.10;;;;;;5016455;28;20594;-65
2021/07/11 08:21:35;;;;;;;;;;;21.50;65.20;;;;;;5020773;28;19924;-71
2021/07/11 08:24:00;;;;;;;;;;;21.50;65.30;;;;;;5009337;28;19918;-68
2021/07/11 08:26:26;;;;;;;;;;;21.50;65.30;;;;;;5018113;28;20356;-69
2021/07/11 08:28:51;;;;;;;;;;;21.50;65.40;;;;;;4995373;28;19917;-68
2021/07/11 08:31:16;;;;;;;;;;;21.50;65.40;;;;;;5002235;28;19983;-67
2021/07/11 08:33:42;;;;;;;;;;;21.50;65.40;;;;;;5009195;28;19924;-68
2021/07/11 08:36:07;;;;;;;;;;;21.60;65.40;;;;;;5010784;28;19921;-67
2021/07/11 08:38:33;;;;;;;;;;;21.50;65.40;;;;;;5012407;28;20861;-66
2021/07/11 08:40:58;;;;;;;;;;;21.50;65.40;;;;;;5014836;28;19925;-68
2021/07/11 08:43:24;;;;;;;;;;;21.50;65.60;;;;;;5015548;28;19925;-68
2021/07/11 08:45:49;;;;;;;;;;;21.50;65.60;;;;;;5016694;28;20012;-68
2021/07/11 08:48:15;;;;;;;;;;;21.50;65.70;;;;;;5029496;28;19930;-68
2021/07/11 08:50:40;;;;;;;;;;;21.50;65.70;;;;;;5018851;28;20396;-70
2021/07/11 08:53:05;;;;;;;;;;;21.50;66.30;;;;;;5023769;28;19956;-69
2021/07/11 08:55:31;;;;;;;;;;;21.50;65.70;;;;;;5002726;28;19971;-68
2021/07/11 08:57:57;;;;;;;;;;;21.60;65.80;;;;;;5011870;28;19933;-69
2021/07/11 09:00:23;;;;;;;;;;;21.50;65.80;;;;;;5015769;28;20029;-69
2021/07/11 09:02:49;;;;;;;;;;;21.50;65.80;;;;;;5016919;28;19949;-68
2021/07/11 09:05:25;;;;;;;;;;;21.50;65.90;;;;;;5011633;28;19927;-66
2021/07/11 09:08:20;;;;;;;;;;;21.50;66.00;;;;;;5014626;28;20004;-68
2021/07/11 09:10:49;;;;;;;;;;;21.50;66.10;;;;;;5005429;28;20316;-66
2021/07/11 09:13:15;;;;;;;;;;;21.50;66.20;;;;;;5007041;28;19933;-69
2021/07/11 09:15:42;;;;;;;;;;;21.60;66.40;;;;;;5011855;28;19917;-70
2021/07/11 09:18:08;;;;;;;;;;;21.60;66.50;;;;;;5014932;28;19944;-69
2021/07/11 09:20:47;;;;;;;;;;;21.50;66.50;;;;;;5015004;28;20547;-67
2021/07/11 09:23:12;;;;;;;;;;;21.50;66.60;;;;;;5011051;28;19972;-68
2021/07/11 09:25:38;;;;;;;;;;;21.60;66.90;;;;;;5013730;28;19917;-70
2021/07/11 09:28:09;;;;;;;;;;;21.60;67.00;;;;;;5012580;28;19928;-69
2021/07/11 09:30:34;;;;;;;;;;;21.60;67.20;;;;;;4994865;28;20013;-67
2021/07/11 09:32:59;;;;;;;;;;;21.60;67.20;;;;;;5011161;28;19924;-67
2021/07/11 09:35:25;;;;;;;;;;;21.60;66.90;;;;;;5014246;28;20001;-66
2021/07/11 09:37:55;;;;;;;;;;;21.60;67.00;;;;;;4991994;28;19924;-72
2021/07/11 09:40:23;;;;;;;;;;;21.60;66.90;;;;;;5010179;28;19929;-66
2021/07/11 09:42:50;;;;;;;;;;;21.60;66.60;;;;;;5011758;28;19957;-65
2021/07/11 09:45:16;;;;;;;;;;;21.60;66.60;;;;;;5013552;28;19925;-69
2021/07/11 09:47:42;;;;;;;;;;;21.60;67.00;;;;;;5030518;28;19923;-69
2021/07/11 09:50:10;;;;;;;;;;;21.60;66.90;;;;;;5014163;28;19921;-68
2021/07/11 09:52:36;;;;;;;;;;;21.60;67.00;;;;;;5012051;28;20503;-67
2021/07/11 09:55:06;;;;;;;;;;;21.60;66.90;;;;;;5011987;28;19922;-68
2021/07/11 09:57:35;;;;;;;;;;;21.60;66.60;;;;;;5017670;28;19964;-66
2021/07/11 10:00:21;;;;;;;;;;;21.60;66.50;;;;;;5017250;28;19921;-67
2021/07/11 10:02:47;;;;;;;;;;;21.60;66.70;;;;;;4999710;28;19922;-69
2021/07/11 10:05:12;;;;;;;;;;;21.60;66.70;;;;;;5012760;28;20451;-67
2021/07/11 10:07:38;;;;;;;;;;;21.60;66.60;;;;;;5011732;28;19918;-66
2021/07/11 10:10:04;;;;;;;;;;;21.60;66.60;;;;;;5010998;28;19976;-69
2021/07/11 10:12:29;;;;;;;;;;;21.60;66.70;;;;;;4999782;28;20463;-67
2021/07/11 10:14:55;;;;;;;;;;;21.60;66.70;;;;;;5012556;28;19917;-68
2021/07/11 10:17:20;;;;;;;;;;;21.60;66.70;;;;;;5015007;28;20346;-70
2021/07/11 10:19:49;;;;;;;;;;;21.60;66.80;;;;;;5030112;28;19917;-70
2021/07/11 10:22:15;;;;;;;;;;;21.70;67.20;;;;;;5007669;28;19921;-68
2021/07/11 10:24:41;;;;;;;;;;;21.70;67.70;;;;;;5011529;28;20329;-70
2021/07/11 10:27:16;;;;;;;;;;;21.70;67.80;;;;;;5017934;28;20387;-67
2021/07/11 10:29:45;;;;;;;;;;;21.70;67.90;;;;;;5010369;28;20374;-67
2021/07/11 10:32:19;;;;;;;;;;;21.70;67.70;;;;;;4994473;28;20029;-68
2021/07/11 10:34:44;;;;;;;;;;;21.70;67.60;;;;;;5011272;28;20493;-69
2021/07/11 10:37:16;;;;;;;;;;;21.70;67.60;;;;;;5011015;28;19928;-68
2021/07/11 10:39:42;;;;;;;;;;;21.70;67.90;;;;;;4999555;28;20008;-67
2021/07/11 10:42:08;;;;;;;;;;;21.70;68.10;;;;;;5011625;28;20004;-69
2021/07/11 10:44:33;;;;;;;;;;;21.70;68.20;;;;;;5007705;28;20320;-71
2021/07/11 10:47:00;;;;;;;;;;;21.70;68.50;;;;;;5008877;28;20511;-68
2021/07/11 10:49:27;;;;;;;;;;;21.70;68.40;;;;;;4995516;28;19918;-70
2021/07/11 10:51:59;;;;;;;;;;;21.70;67.90;;;;;;4989199;28;19926;-72
2021/07/11 10:54:32;;;;;;;;;;;21.70;67.90;;;;;;5007590;28;19924;-69
2021/07/11 10:56:58;;;;;;;;;;;21.70;68.40;;;;;;5007707;28;19924;-69
2021/07/11 10:59:27;;;;;;;;;;;21.70;68.10;;;;;;5015613;28;20650;-72
2021/07/11 11:01:53;;;;;;;;;;;21.70;68.10;;;;;;5006319;28;19922;-67
2021/07/11 11:04:18;;;;;;;;;;;21.70;68.50;;;;;;5008309;28;19996;-69
2021/07/11 11:06:44;;;;;;;;;;;21.70;68.30;;;;;;5015271;28;19953;-71
2021/07/11 11:09:09;;;;;;;;;;;21.70;68.20;;;;;;5012163;28;19967;-70
2021/07/11 11:11:35;;;;;;;;;;;21.70;68.60;;;;;;5017872;28;19932;-70
2021/07/11 11:14:06;;;;;;;;;;;21.70;68.60;;;;;;5014443;28;19917;-68
2021/07/11 11:16:45;;;;;;;;;;;21.70;68.90;;;;;;5018007;28;19972;-70
2021/07/11 11:19:14;;;;;;;;;;;21.70;68.90;;;;;;5008179;28;19925;-69
2021/07/11 11:21:39;;;;;;;;;;;21.70;69.00;;;;;;4997229;28;20012;-71
2021/07/11 11:24:05;;;;;;;;;;;21.80;69.30;;;;;;5003641;28;20357;-70
2021/07/11 11:26:30;;;;;;;;;;;21.70;69.20;;;;;;5018559;28;19969;-63
2021/07/11 11:28:56;;;;;;;;;;;21.70;69.10;;;;;;5027840;28;19917;-70
2021/07/11 11:31:23;;;;;;;;;;;21.70;69.00;;;;;;5018750;28;19917;-67
2021/07/11 11:33:51;;;;;;;;;;;21.80;69.00;;;;;;5016213;28;19925;-69
2021/07/11 11:36:27;;;;;;;;;;;21.70;68.50;;;;;;5021891;28;19918;-69
2021/07/11 11:38:52;;;;;;;;;;;21.70;69.30;;;;;;5015076;28;20364;-66
2021/07/11 11:41:18;;;;;;;;;;;21.80;69.00;;;;;;5021339;28;19944;-68
2021/07/11 11:43:47;;;;;;;;;;;21.80;69.10;;;;;;5033445;28;20289;-65
2021/07/11 11:46:22;;;;;;;;;;;21.80;69.10;;;;;;5018370;28;19929;-67
2021/07/11 11:48:54;;;;;;;;;;;21.80;68.90;;;;;;5015896;28;19985;-69
2021/07/11 11:51:19;;;;;;;;;;;21.80;69.00;;;;;;5015411;28;20007;-66
2021/07/11 11:53:45;;;;;;;;;;;21.70;69.00;;;;;;5015526;28;19917;-68
2021/07/11 11:56:11;;;;;;;;;;;21.70;69.00;;;;;;5024449;28;19924;-69
2021/07/11 11:58:36;;;;;;;;;;;21.80;68.90;;;;;;5009420;28;19917;-69
2021/07/11 12:01:05;;;;;;;;;;;21.80;68.90;;;;;;5000473;28;20422;-68
2021/07/11 12:03:31;;;;;;;;;;;21.80;69.00;;;;;;5017374;28;19924;-68
2021/07/11 12:05:59;;;;;;;;;;;21.80;68.70;;;;;;5015776;28;20321;-68
2021/07/11 12:08:25;;;;;;;;;;;21.80;68.90;;;;;;5016470;28;20391;-68
2021/07/11 12:10:50;;;;;;;;;;;21.80;69.00;;;;;;4997206;28;19918;-69
2021/07/11 12:13:23;;;;;;;;;;;21.80;68.90;;;;;;4997471;28;19929;-69
2021/07/11 12:15:49;;;;;;;;;;;21.80;69.00;;;;;;5018249;28;19917;-69
2021/07/11 12:18:14;;;;;;;;;;;21.80;68.70;;;;;;5017444;28;19928;-70
2021/07/11 12:20:40;;;;;;;;;;;21.80;68.70;;;;;;5015900;28;19926;-70
2021/07/11 12:23:08;;;;;;;;;;;21.90;68.80;;;;;;4998165;28;20404;-68
2021/07/11 12:25:37;;;;;;;;;;;21.80;68.40;;;;;;5015976;28;19953;-67
2021/07/11 12:28:03;;;;;;;;;;;21.80;68.40;;;;;;5017147;28;20392;-69
2021/07/11 12:30:34;;;;;;;;;;;21.90;68.40;;;;;;5017979;28;19917;-69
2021/07/11 12:33:00;;;;;;;;;;;21.90;68.40;;;;;;5012754;28;19928;-70
2021/07/11 12:35:26;;;;;;;;;;;21.90;68.60;;;;;;5018317;28;20311;-68
2021/07/11 12:37:53;;;;;;;;;;;21.90;68.60;;;;;;4998764;28;19921;-68
2021/07/11 12:40:18;;;;;;;;;;;21.90;68.60;;;;;;5014466;28;19936;-68
2021/07/11 12:42:44;;;;;;;;;;;21.90;68.60;;;;;;5022874;28;19917;-67
2021/07/11 12:45:16;;;;;;;;;;;21.90;68.60;;;;;;5016495;28;19917;-69
2021/07/11 12:47:51;;;;;;;;;;;21.90;68.60;;;;;;5018640;28;19921;-68
2021/07/11 12:50:16;;;;;;;;;;;21.90;68.90;;;;;;5009342;28;19925;-69
2021/07/11 12:52:51;;;;;;;;;;;21.90;69.00;;;;;;5034115;28;19921;-70
2021/07/11 12:55:17;;;;;;;;;;;21.90;68.60;;;;;;5016044;28;19918;-69
2021/07/11 12:57:42;;;;;;;;;;;21.90;68.90;;;;;;5018640;28;20017;-69
2021/07/11 13:00:09;;;;;;;;;;;21.90;68.90;;;;;;5013322;28;19917;-71
2021/07/11 13:02:34;;;;;;;;;;;21.90;69.00;;;;;;5012255;28;19917;-69
2021/07/11 13:05:00;;;;;;;;;;;21.90;68.80;;;;;;5017085;28;19968;-72
2021/07/11 13:07:27;;;;;;;;;;;21.90;69.10;;;;;;5016324;28;19921;-70
2021/07/11 13:09:52;;;;;;;;;;;21.90;69.00;;;;;;5014197;28;19921;-72
2021/07/11 13:12:18;;;;;;;;;;;21.90;69.10;;;;;;5014046;28;20402;-72
2021/07/11 13:14:50;;;;;;;;;;;22.00;69.10;;;;;;5021377;28;19925;-69
2021/07/11 13:17:15;;;;;;;;;;;22.00;69.20;;;;;;4996355;28;19921;-67
2021/07/11 13:19:41;;;;;;;;;;;22.00;69.20;;;;;;5014787;28;19922;-68
2021/07/11 13:22:06;;;;;;;;;;;22.00;69.30;;;;;;5022598;28;20774;-68
2021/07/11 13:24:32;;;;;;;;;;;22.00;69.20;;;;;;5016885;28;19917;-68
2021/07/11 13:26:57;;;;;;;;;;;22.00;68.90;;;;;;5017430;28;19918;-68
2021/07/11 13:29:23;;;;;;;;;;;22.00;68.80;;;;;;5014020;28;20364;-69
2021/07/11 13:31:48;;;;;;;;;;;22.00;68.60;;;;;;5021334;28;19925;-70
2021/07/11 13:34:14;;;;;;;;;;;22.00;68.60;;;;;;5013462;28;20004;-69
2021/07/11 13:36:39;;;;;;;;;;;22.00;68.50;;;;;;5012898;28;19921;-69
2021/07/11 13:39:05;;;;;;;;;;;22.00;68.50;;;;;;5005441;28;20348;-66
2021/07/11 13:41:30;;;;;;;;;;;22.00;68.60;;;;;;5010725;28;19917;-69
2021/07/11 13:43:56;;;;;;;;;;;22.00;68.40;;;;;;5018385;28;19946;-69
2021/07/11 13:46:21;;;;;;;;;;;22.00;68.80;;;;;;5011501;28;20372;-68
2021/07/11 13:48:47;;;;;;;;;;;22.00;68.80;;;;;;5009277;28;19943;-67
2021/07/11 13:51:12;;;;;;;;;;;22.00;68.40;;;;;;5016105;28;19917;-68
2021/07/11 13:53:38;;;;;;;;;;;22.00;68.60;;;;;;5016444;28;20306;-71
2021/07/11 13:56:03;;;;;;;;;;;22.00;68.60;;;;;;5013883;28;19925;-68
2021/07/11 13:58:29;;;;;;;;;;;22.00;68.80;;;;;;5010498;28;20291;-70
2021/07/11 14:00:54;;;;;;;;;;;22.00;68.50;;;;;;5013717;28;19917;-69
2021/07/11 14:03:20;;;;;;;;;;;22.00;68.40;;;;;;5005379;28;19926;-69
2021/07/11 14:05:45;;;;;;;;;;;22.00;68.60;;;;;;5012616;28;19923;-70
2021/07/11 14:08:11;;;;;;;;;;;22.00;68.70;;;;;;5013078;28;20397;-68
2021/07/11 14:10:36;;;;;;;;;;;22.00;68.40;;;;;;5014539;28;19921;-68